Seal Beach, California
Current Conditions -  °F | °C
As of 5:58 PM on Saturday 22 Nov 2014 (Local Time) from KSLI Reporting Station
Clear Clear  
Wind Chill: 63°   Ceiling: Unl
Heat Index: 63°   Visibility: 10mi
Dew Point: 58°   Wind: 5mph
Humidity: 85%   Direction: 160°SSE
Pressure: 30.01"   Gusts: NA
Location:  33.74°N, 118.1°W
Report Text: KSLI 230158Z AUTO 16004KT 10SM CLR 17/15 A3001 RMK AO2 SLP165 T01710145
Loading
Personal Weather Stations






























Interactive Weather Map New forecast layout! Learn more

10-Day Weather Forecast

Advertisements
Track Severe Weather on mobile